sensor_id;sensor_type;location;lat;lon;timestamp;P1;durP1;ratioP1;P2;durP2;ratioP2
32850;SDS011;19202;48.992;8.390;2022-10-26T00:01:22;4.15;;;2.30;;
32850;SDS011;19202;48.992;8.390;2022-10-26T00:06:59;4.60;;;2.50;;
32850;SDS011;19202;48.992;8.390;2022-10-26T00:12:37;9.52;;;2.78;;
32850;SDS011;19202;48.992;8.390;2022-10-26T00:18:15;7.63;;;2.70;;
32850;SDS011;19202;48.992;8.390;2022-10-26T00:23:53;7.97;;;2.33;;
32850;SDS011;19202;48.992;8.390;2022-10-26T00:29:31;9.00;;;2.35;;
32850;SDS011;19202;48.992;8.390;2022-10-26T00:35:09;9.30;;;3.03;;
32850;SDS011;19202;48.992;8.390;2022-10-26T00:40:47;7.57;;;2.47;;
32850;SDS011;19202;48.992;8.390;2022-10-26T00:46:29;7.70;;;2.42;;
32850;SDS011;19202;48.992;8.390;2022-10-26T00:52:12;3.80;;;2.08;;
32850;SDS011;19202;48.992;8.390;2022-10-26T00:57:51;5.38;;;2.00;;
32850;SDS011;19202;48.992;8.390;2022-10-26T01:03:30;7.03;;;2.13;;
32850;SDS011;19202;48.992;8.390;2022-10-26T01:09:10;7.82;;;1.85;;
32850;SDS011;19202;48.992;8.390;2022-10-26T01:14:49;4.55;;;2.13;;
32850;SDS011;19202;48.992;8.390;2022-10-26T01:26:37;7.82;;;1.98;;
32850;SDS011;19202;48.992;8.390;2022-10-26T01:32:29;5.97;;;1.92;;
32850;SDS011;19202;48.992;8.390;2022-10-26T01:38:23;8.38;;;1.88;;
32850;SDS011;19202;48.992;8.390;2022-10-26T01:44:20;2.92;;;1.67;;
32850;SDS011;19202;48.992;8.390;2022-10-26T01:50:02;4.47;;;2.00;;
32850;SDS011;19202;48.992;8.390;2022-10-26T02:13:41;4.32;;;1.90;;
32850;SDS011;19202;48.992;8.390;2022-10-26T02:25:21;13.55;;;2.47;;
32850;SDS011;19202;48.992;8.390;2022-10-26T02:31:03;5.07;;;2.25;;
32850;SDS011;19202;48.992;8.390;2022-10-26T02:36:43;5.50;;;2.58;;
32850;SDS011;19202;48.992;8.390;2022-10-26T02:42:24;7.35;;;2.83;;
32850;SDS011;19202;48.992;8.390;2022-10-26T02:48:04;3.90;;;2.53;;
32850;SDS011;19202;48.992;8.390;2022-10-26T02:59:49;10.18;;;2.83;;
32850;SDS011;19202;48.992;8.390;2022-10-26T03:05:30;8.65;;;2.50;;
32850;SDS011;19202;48.992;8.390;2022-10-26T03:11:09;7.28;;;2.50;;
32850;SDS011;19202;48.992;8.390;2022-10-26T03:16:47;5.28;;;2.58;;
32850;SDS011;19202;48.992;8.390;2022-10-26T03:22:25;4.75;;;2.28;;
32850;SDS011;19202;48.992;8.390;2022-10-26T03:28:03;8.68;;;2.42;;
32850;SDS011;19202;48.992;8.390;2022-10-26T03:33:41;10.98;;;2.88;;
32850;SDS011;19202;48.992;8.390;2022-10-26T03:39:19;10.88;;;3.00;;
32850;SDS011;19202;48.992;8.390;2022-10-26T03:44:57;14.65;;;4.07;;
32850;SDS011;19202;48.992;8.390;2022-10-26T03:50:35;5.13;;;2.72;;
32850;SDS011;19202;48.992;8.390;2022-10-26T03:56:13;7.38;;;2.55;;
32850;SDS011;19202;48.992;8.390;2022-10-26T04:01:51;4.40;;;2.40;;
32850;SDS011;19202;48.992;8.390;2022-10-26T04:07:29;10.77;;;2.80;;
32850;SDS011;19202;48.992;8.390;2022-10-26T04:13:08;4.32;;;2.63;;
32850;SDS011;19202;48.992;8.390;2022-10-26T04:18:47;5.80;;;2.40;;
32850;SDS011;19202;48.992;8.390;2022-10-26T04:24:25;13.02;;;6.05;;
32850;SDS011;19202;48.992;8.390;2022-10-26T04:30:03;10.68;;;2.50;;
32850;SDS011;19202;48.992;8.390;2022-10-26T04:35:45;4.80;;;2.53;;
32850;SDS011;19202;48.992;8.390;2022-10-26T04:41:24;6.35;;;3.28;;
32850;SDS011;19202;48.992;8.390;2022-10-26T04:47:02;14.93;;;2.42;;
32850;SDS011;19202;48.992;8.390;2022-10-26T04:52:40;12.60;;;5.65;;
32850;SDS011;19202;48.992;8.390;2022-10-26T04:58:19;9.95;;;3.85;;
32850;SDS011;19202;48.992;8.390;2022-10-26T05:04:00;10.90;;;2.75;;
32850;SDS011;19202;48.992;8.390;2022-10-26T05:09:39;9.65;;;3.70;;
32850;SDS011;19202;48.992;8.390;2022-10-26T05:15:17;5.00;;;2.92;;
32850;SDS011;19202;48.992;8.390;2022-10-26T05:20:55;8.25;;;3.60;;
32850;SDS011;19202;48.992;8.390;2022-10-26T05:26:34;6.57;;;2.97;;
32850;SDS011;19202;48.992;8.390;2022-10-26T05:32:13;3.65;;;2.08;;
32850;SDS011;19202;48.992;8.390;2022-10-26T05:37:51;9.25;;;3.83;;
32850;SDS011;19202;48.992;8.390;2022-10-26T05:43:30;10.30;;;3.42;;
32850;SDS011;19202;48.992;8.390;2022-10-26T05:49:08;6.80;;;3.00;;
32850;SDS011;19202;48.992;8.390;2022-10-26T05:54:46;5.38;;;2.90;;
32850;SDS011;19202;48.992;8.390;2022-10-26T06:00:25;10.20;;;3.30;;
32850;SDS011;19202;48.992;8.390;2022-10-26T06:06:04;5.72;;;3.47;;
32850;SDS011;19202;48.992;8.390;2022-10-26T06:11:44;7.93;;;3.35;;
32850;SDS011;19202;48.992;8.390;2022-10-26T06:23:16;6.47;;;3.08;;
32850;SDS011;19202;48.992;8.390;2022-10-26T06:29:09;11.50;;;3.60;;
32850;SDS011;19202;48.992;8.390;2022-10-26T06:41:15;6.65;;;3.03;;
32850;SDS011;19202;48.992;8.390;2022-10-26T06:52:45;5.53;;;2.97;;
32850;SDS011;19202;48.992;8.390;2022-10-26T06:58:32;7.95;;;3.78;;
32850;SDS011;19202;48.992;8.390;2022-10-26T07:04:12;6.50;;;3.80;;
32850;SDS011;19202;48.992;8.390;2022-10-26T07:09:50;3.97;;;2.85;;
32850;SDS011;19202;48.992;8.390;2022-10-26T07:15:28;8.73;;;3.17;;
32850;SDS011;19202;48.992;8.390;2022-10-26T07:21:06;8.20;;;3.10;;
32850;SDS011;19202;48.992;8.390;2022-10-26T07:26:44;8.27;;;3.13;;
32850;SDS011;19202;48.992;8.390;2022-10-26T07:32:22;9.52;;;3.50;;
32850;SDS011;19202;48.992;8.390;2022-10-26T07:38:00;7.80;;;3.30;;
32850;SDS011;19202;48.992;8.390;2022-10-26T07:43:39;4.80;;;3.10;;
32850;SDS011;19202;48.992;8.390;2022-10-26T07:49:17;9.27;;;3.72;;
32850;SDS011;19202;48.992;8.390;2022-10-26T07:54:55;8.95;;;3.50;;
32850;SDS011;19202;48.992;8.390;2022-10-26T08:00:33;9.35;;;3.20;;
32850;SDS011;19202;48.992;8.390;2022-10-26T08:06:11;7.55;;;3.15;;
32850;SDS011;19202;48.992;8.390;2022-10-26T08:11:50;10.48;;;3.22;;
32850;SDS011;19202;48.992;8.390;2022-10-26T08:17:28;8.43;;;3.40;;
32850;SDS011;19202;48.992;8.390;2022-10-26T08:23:06;8.32;;;3.00;;
32850;SDS011;19202;48.992;8.390;2022-10-26T08:28:46;6.40;;;3.03;;
32850;SDS011;19202;48.992;8.390;2022-10-26T08:34:25;6.63;;;3.40;;
32850;SDS011;19202;48.992;8.390;2022-10-26T08:40:03;10.68;;;3.13;;
32850;SDS011;19202;48.992;8.390;2022-10-26T08:45:49;8.60;;;2.90;;
32850;SDS011;19202;48.992;8.390;2022-10-26T08:51:35;15.10;;;3.10;;
32850;SDS011;19202;48.992;8.390;2022-10-26T08:57:26;9.77;;;3.22;;
32850;SDS011;19202;48.992;8.390;2022-10-26T09:03:11;9.40;;;3.08;;
32850;SDS011;19202;48.992;8.390;2022-10-26T09:26:56;3.42;;;1.70;;
32850;SDS011;19202;48.992;8.390;2022-10-26T09:32:37;6.10;;;2.00;;
32850;SDS011;19202;48.992;8.390;2022-10-26T09:44:26;6.07;;;1.87;;
32850;SDS011;19202;48.992;8.390;2022-10-26T09:56:05;3.78;;;2.00;;
32850;SDS011;19202;48.992;8.390;2022-10-26T10:01:45;9.95;;;1.67;;
32850;SDS011;19202;48.992;8.390;2022-10-26T10:07:23;8.18;;;1.90;;
32850;SDS011;19202;48.992;8.390;2022-10-26T10:13:12;4.45;;;1.90;;
32850;SDS011;19202;48.992;8.390;2022-10-26T10:18:58;7.75;;;1.77;;
32850;SDS011;19202;48.992;8.390;2022-10-26T10:24:39;3.63;;;1.75;;
32850;SDS011;19202;48.992;8.390;2022-10-26T10:30:22;8.68;;;1.95;;
32850;SDS011;19202;48.992;8.390;2022-10-26T10:36:09;4.68;;;1.80;;
32850;SDS011;19202;48.992;8.390;2022-10-26T10:41:51;6.05;;;2.05;;
32850;SDS011;19202;48.992;8.390;2022-10-26T10:47:33;7.35;;;1.95;;
32850;SDS011;19202;48.992;8.390;2022-10-26T10:53:14;3.10;;;1.23;;
32850;SDS011;19202;48.992;8.390;2022-10-26T10:59:05;6.07;;;1.58;;
32850;SDS011;19202;48.992;8.390;2022-10-26T11:23:16;6.15;;;1.75;;
32850;SDS011;19202;48.992;8.390;2022-10-26T11:29:00;2.55;;;1.50;;
32850;SDS011;19202;48.992;8.390;2022-10-26T11:47:02;6.85;;;2.05;;
32850;SDS011;19202;48.992;8.390;2022-10-26T11:52:51;4.63;;;1.48;;
32850;SDS011;19202;48.992;8.390;2022-10-26T11:58:31;4.15;;;1.58;;
32850;SDS011;19202;48.992;8.390;2022-10-26T12:04:10;2.90;;;1.40;;
32850;SDS011;19202;48.992;8.390;2022-10-26T12:09:48;7.88;;;1.80;;
32850;SDS011;19202;48.992;8.390;2022-10-26T12:15:35;8.98;;;2.30;;
32850;SDS011;19202;48.992;8.390;2022-10-26T12:21:19;6.80;;;1.70;;
32850;SDS011;19202;48.992;8.390;2022-10-26T12:26:58;9.63;;;1.42;;
32850;SDS011;19202;48.992;8.390;2022-10-26T12:44:02;4.72;;;1.20;;
32850;SDS011;19202;48.992;8.390;2022-10-26T12:50:31;3.80;;;1.42;;
32850;SDS011;19202;48.992;8.390;2022-10-26T12:56:09;7.20;;;1.88;;
32850;SDS011;19202;48.992;8.390;2022-10-26T13:07:48;6.07;;;1.40;;
32850;SDS011;19202;48.992;8.390;2022-10-26T13:13:27;3.85;;;1.30;;
32850;SDS011;19202;48.992;8.390;2022-10-26T13:19:20;5.78;;;1.67;;
32850;SDS011;19202;48.992;8.390;2022-10-26T13:25:01;4.90;;;1.40;;
32850;SDS011;19202;48.992;8.390;2022-10-26T13:30:42;7.78;;;1.70;;
32850;SDS011;19202;48.992;8.390;2022-10-26T13:36:26;4.85;;;2.15;;
32850;SDS011;19202;48.992;8.390;2022-10-26T13:42:05;5.10;;;1.60;;
32850;SDS011;19202;48.992;8.390;2022-10-26T13:47:53;9.20;;;1.63;;
32850;SDS011;19202;48.992;8.390;2022-10-26T13:53:46;4.93;;;1.43;;
32850;SDS011;19202;48.992;8.390;2022-10-26T13:59:36;6.85;;;1.58;;
32850;SDS011;19202;48.992;8.390;2022-10-26T14:05:17;5.03;;;1.42;;
32850;SDS011;19202;48.992;8.390;2022-10-26T14:10:56;4.38;;;1.38;;
32850;SDS011;19202;48.992;8.390;2022-10-26T14:16:36;10.30;;;1.50;;
32850;SDS011;19202;48.992;8.390;2022-10-26T14:22:23;4.25;;;1.55;;
32850;SDS011;19202;48.992;8.390;2022-10-26T14:33:59;3.38;;;1.55;;
32850;SDS011;19202;48.992;8.390;2022-10-26T14:39:41;9.38;;;2.00;;
32850;SDS011;19202;48.992;8.390;2022-10-26T14:45:31;10.48;;;2.30;;
32850;SDS011;19202;48.992;8.390;2022-10-26T14:51:16;6.60;;;1.73;;
32850;SDS011;19202;48.992;8.390;2022-10-26T14:56:55;4.28;;;1.38;;
32850;SDS011;19202;48.992;8.390;2022-10-26T15:02:33;5.10;;;1.85;;
32850;SDS011;19202;48.992;8.390;2022-10-26T15:14:19;3.63;;;1.67;;
32850;SDS011;19202;48.992;8.390;2022-10-26T15:19:57;12.82;;;1.83;;
32850;SDS011;19202;48.992;8.390;2022-10-26T15:26:02;12.98;;;2.10;;
32850;SDS011;19202;48.992;8.390;2022-10-26T15:31:41;7.88;;;2.15;;
32850;SDS011;19202;48.992;8.390;2022-10-26T15:37:19;5.13;;;1.55;;
32850;SDS011;19202;48.992;8.390;2022-10-26T15:42:57;4.72;;;1.70;;
32850;SDS011;19202;48.992;8.390;2022-10-26T15:48:36;6.13;;;1.95;;
32850;SDS011;19202;48.992;8.390;2022-10-26T15:54:16;7.55;;;1.73;;
32850;SDS011;19202;48.992;8.390;2022-10-26T16:06:36;6.38;;;1.92;;
32850;SDS011;19202;48.992;8.390;2022-10-26T16:12:16;5.20;;;2.10;;
32850;SDS011;19202;48.992;8.390;2022-10-26T16:17:54;7.55;;;2.25;;
32850;SDS011;19202;48.992;8.390;2022-10-26T16:23:32;6.47;;;2.35;;
32850;SDS011;19202;48.992;8.390;2022-10-26T16:29:10;7.45;;;3.13;;
32850;SDS011;19202;48.992;8.390;2022-10-26T16:34:48;7.82;;;2.45;;
32850;SDS011;19202;48.992;8.390;2022-10-26T16:40:26;9.80;;;2.78;;
32850;SDS011;19202;48.992;8.390;2022-10-26T16:46:08;9.27;;;2.67;;
32850;SDS011;19202;48.992;8.390;2022-10-26T16:51:47;9.60;;;3.20;;
32850;SDS011;19202;48.992;8.390;2022-10-26T16:57:25;11.02;;;3.05;;
32850;SDS011;19202;48.992;8.390;2022-10-26T17:03:03;11.82;;;2.53;;
32850;SDS011;19202;48.992;8.390;2022-10-26T17:08:41;6.28;;;3.13;;
32850;SDS011;19202;48.992;8.390;2022-10-26T17:14:19;9.68;;;3.53;;
32850;SDS011;19202;48.992;8.390;2022-10-26T17:19:57;8.63;;;3.10;;
32850;SDS011;19202;48.992;8.390;2022-10-26T17:25:35;9.23;;;3.10;;
32850;SDS011;19202;48.992;8.390;2022-10-26T17:31:15;11.63;;;3.47;;
32850;SDS011;19202;48.992;8.390;2022-10-26T17:36:52;13.75;;;3.92;;
32850;SDS011;19202;48.992;8.390;2022-10-26T17:42:31;11.60;;;3.58;;
32850;SDS011;19202;48.992;8.390;2022-10-26T17:48:08;9.75;;;3.60;;
32850;SDS011;19202;48.992;8.390;2022-10-26T17:53:47;16.75;;;4.90;;
32850;SDS011;19202;48.992;8.390;2022-10-26T17:59:31;10.05;;;4.50;;
32850;SDS011;19202;48.992;8.390;2022-10-26T18:05:09;13.52;;;5.25;;
32850;SDS011;19202;48.992;8.390;2022-10-26T18:10:51;10.82;;;4.65;;
32850;SDS011;19202;48.992;8.390;2022-10-26T18:16:31;16.80;;;6.10;;
32850;SDS011;19202;48.992;8.390;2022-10-26T18:22:09;13.77;;;5.80;;
32850;SDS011;19202;48.992;8.390;2022-10-26T18:27:47;14.43;;;4.85;;
32850;SDS011;19202;48.992;8.390;2022-10-26T18:33:25;12.10;;;4.78;;
32850;SDS011;19202;48.992;8.390;2022-10-26T18:39:03;13.98;;;5.15;;
32850;SDS011;19202;48.992;8.390;2022-10-26T18:44:45;10.82;;;4.93;;
32850;SDS011;19202;48.992;8.390;2022-10-26T18:50:22;12.70;;;4.63;;
32850;SDS011;19202;48.992;8.390;2022-10-26T18:56:01;13.27;;;4.93;;
32850;SDS011;19202;48.992;8.390;2022-10-26T19:01:41;17.20;;;4.78;;
32850;SDS011;19202;48.992;8.390;2022-10-26T19:07:19;18.88;;;6.57;;
32850;SDS011;19202;48.992;8.390;2022-10-26T19:12:57;10.40;;;6.00;;
32850;SDS011;19202;48.992;8.390;2022-10-26T19:18:34;11.50;;;5.03;;
32850;SDS011;19202;48.992;8.390;2022-10-26T19:24:14;11.70;;;4.78;;
32850;SDS011;19202;48.992;8.390;2022-10-26T19:29:54;13.75;;;4.50;;
32850;SDS011;19202;48.992;8.390;2022-10-26T19:35:32;13.73;;;4.75;;
32850;SDS011;19202;48.992;8.390;2022-10-26T19:41:11;11.82;;;4.68;;
32850;SDS011;19202;48.992;8.390;2022-10-26T19:46:50;9.13;;;4.43;;
32850;SDS011;19202;48.992;8.390;2022-10-26T19:52:28;14.00;;;5.65;;
32850;SDS011;19202;48.992;8.390;2022-10-26T19:58:05;10.07;;;4.72;;
32850;SDS011;19202;48.992;8.390;2022-10-26T20:03:43;13.10;;;4.70;;
32850;SDS011;19202;48.992;8.390;2022-10-26T20:09:24;8.25;;;4.50;;
32850;SDS011;19202;48.992;8.390;2022-10-26T20:15:02;10.35;;;4.50;;
32850;SDS011;19202;48.992;8.390;2022-10-26T20:20:40;9.77;;;4.18;;
32850;SDS011;19202;48.992;8.390;2022-10-26T20:26:19;14.30;;;5.00;;
32850;SDS011;19202;48.992;8.390;2022-10-26T20:31:57;11.50;;;4.65;;
32850;SDS011;19202;48.992;8.390;2022-10-26T20:37:36;10.52;;;4.78;;
32850;SDS011;19202;48.992;8.390;2022-10-26T20:43:17;14.75;;;4.38;;
32850;SDS011;19202;48.992;8.390;2022-10-26T20:48:55;11.02;;;4.65;;
32850;SDS011;19202;48.992;8.390;2022-10-26T20:54:36;10.57;;;4.97;;
32850;SDS011;19202;48.992;8.390;2022-10-26T21:00:22;14.07;;;5.13;;
32850;SDS011;19202;48.992;8.390;2022-10-26T21:06:00;10.00;;;5.07;;
32850;SDS011;19202;48.992;8.390;2022-10-26T21:11:38;11.18;;;4.72;;
32850;SDS011;19202;48.992;8.390;2022-10-26T21:17:17;11.48;;;5.13;;
32850;SDS011;19202;48.992;8.390;2022-10-26T21:22:54;11.63;;;4.47;;
32850;SDS011;19202;48.992;8.390;2022-10-26T21:28:33;9.18;;;4.68;;
32850;SDS011;19202;48.992;8.390;2022-10-26T21:34:18;14.27;;;5.20;;
32850;SDS011;19202;48.992;8.390;2022-10-26T21:39:56;12.35;;;5.03;;
32850;SDS011;19202;48.992;8.390;2022-10-26T21:45:33;13.65;;;5.78;;
32850;SDS011;19202;48.992;8.390;2022-10-26T21:51:15;12.18;;;5.70;;
32850;SDS011;19202;48.992;8.390;2022-10-26T21:56:55;17.92;;;6.72;;
32850;SDS011;19202;48.992;8.390;2022-10-26T22:02:32;11.77;;;4.32;;
32850;SDS011;19202;48.992;8.390;2022-10-26T22:08:10;10.82;;;4.45;;
32850;SDS011;19202;48.992;8.390;2022-10-26T22:13:49;13.38;;;4.25;;
32850;SDS011;19202;48.992;8.390;2022-10-26T22:19:28;10.77;;;4.22;;
32850;SDS011;19202;48.992;8.390;2022-10-26T22:25:05;10.05;;;4.60;;
32850;SDS011;19202;48.992;8.390;2022-10-26T22:30:44;10.48;;;4.15;;
32850;SDS011;19202;48.992;8.390;2022-10-26T22:36:22;14.75;;;4.07;;
32850;SDS011;19202;48.992;8.390;2022-10-26T22:42:01;14.00;;;4.65;;
32850;SDS011;19202;48.992;8.390;2022-10-26T22:47:39;11.20;;;4.07;;
32850;SDS011;19202;48.992;8.390;2022-10-26T22:53:16;11.20;;;3.88;;
32850;SDS011;19202;48.992;8.390;2022-10-26T22:58:55;9.30;;;3.80;;
32850;SDS011;19202;48.992;8.390;2022-10-26T23:04:33;10.88;;;3.45;;
32850;SDS011;19202;48.992;8.390;2022-10-26T23:10:11;15.05;;;4.25;;
32850;SDS011;19202;48.992;8.390;2022-10-26T23:15:49;8.95;;;3.50;;
32850;SDS011;19202;48.992;8.390;2022-10-26T23:21:27;11.32;;;4.50;;
32850;SDS011;19202;48.992;8.390;2022-10-26T23:27:05;7.38;;;4.00;;
32850;SDS011;19202;48.992;8.390;2022-10-26T23:32:43;11.45;;;4.13;;
32850;SDS011;19202;48.992;8.390;2022-10-26T23:38:22;9.95;;;4.47;;
32850;SDS011;19202;48.992;8.390;2022-10-26T23:44:00;10.50;;;4.10;;
32850;SDS011;19202;48.992;8.390;2022-10-26T23:49:38;17.13;;;4.28;;
32850;SDS011;19202;48.992;8.390;2022-10-26T23:55:16;9.63;;;3.90;;
